Main page
METAR-TAF:

METAR-TAF

Airports :

Tangier Ibn Battouta Airport

Tangier, Morocco

latitude: 35-44N, longitude: 005-54W, elevation: 19 m

Current weather observation

The report was made 39 minutes ago, at 05:30 UTC
Wind 8 kt from the West
Temperature 24°C
Humidity 94%
Pressure 1010 hPa
Visibility 10 km or more
no clouds below 1500 m and no cumulonimbus

METAR: GMTT 130530Z 27008KT CAVOK 24/23 Q1010 NOSIG

Time: 07:09 (06:09 UTC)

Forecast

The report was made 7 hours and 9 minutes ago, at 23:00 UTC
Forecast valid from 13 at 00 UTC to 14 at 06 UTC
Wind 2 kt from variable directions
Visibility 10 km or more
no clouds below 1500 m and no cumulonimbus
Temporary
from 13 at 02 UTC to 13 at 07 UTC
Visibility: 4000 m
mist
Becoming
from 13 at 10 UTC to 13 at 13 UTC
Wind 13 kt from the West/Northwest
Becoming
from 13 at 19 UTC to 13 at 22 UTC
Wind 6 kt from the South/Southwest

TAF: GMTT 122300Z 1300/1406 VRB02KT CAVOK TEMPO 1302/1307 4000 BR BECMG 1310/1313 29013KT BECMG 1319/1322 20006KT

Weather observations and forecasts of more than 4000 airports (METAR and TAF reports).

The available stations are represented by yellow and red dots on the map.

Hover mouse over dot to see the name of the station.

Then click to see weather observations and forecasts.

To change the map : click on the green buttons with a black cross to zoom in, on the green button with a dash to zoom out, or on the green arrows for adjacent maps.


METAR-TAF: